Disclaimer

Please do not use the information listed here in-flight or in-navigation, as they are not provided to us by the airports but are provided by volunteers, so they might be outdated.

Search


Regions


Airport information page

No radio frequency information is available.

Airport informations:
Latitude: 09° 32' 52.06" N
Longitude: 100° 03' 44.18" E
Elevation: 64 feet - 20 meters
Operating hours: Remarks
Operating agency: Civil government, landing fees and diplomatic clearance may be required
Timezone: UTC+7
Fuel: Jet A1, without icing nhibitor.

Runway information:
17/35 - 6759 x 148 feet< - >2060 x 45 meters

Recent METARs:
VTSM 182230Z 00000KT 9999 FEW020 27/26 Q1012 NOSIG
VTSM 182330Z 00000KT 9999 FEW020 27/25 Q1012 NOSIG
VTSM 182330Z 00000KT 9999 FEW020 27/25 Q1012 NOSIG

Airport on the map: